Time;durP1;ratioP1;P1;durP2;ratioP2;P2;SDS_P1;SDS_P2;PMS_P1;PMS_P2;Temp;Humidity;BMP_temperature;BMP_pressure;BME280_temperature;BME280_humidity;BME280_pressure;Samples;Min_cycle;Max_cycle;Signal;HPM_P1;HPM_P2
2023/04/17 00:01:35;;;;;;;14.32;8.32;;;;;;;7.92;100.00;99256.09;5003940;28;20053;-71
2023/04/17 00:04:01;;;;;;;14.93;9.60;;;;;;;7.87;100.00;99236.91;4992664;28;20072;-70
2023/04/17 00:06:26;;;;;;;14.52;8.32;;;;;;;7.77;100.00;99233.59;5011465;28;20026;-70
2023/04/17 00:08:52;;;;;;;15.85;9.05;;;;;;;7.87;100.00;99247.69;4987531;28;20109;-70
2023/04/17 00:11:17;;;;;;;13.32;8.32;;;;;;;7.85;100.00;99249.72;5008489;28;20483;-70
2023/04/17 00:13:43;;;;;;;17.15;9.40;;;;;;;7.81;100.00;99241.16;5010852;28;20049;-70
2023/04/17 00:16:12;;;;;;;14.52;8.95;;;;;;;7.89;100.00;99253.75;4987661;28;20033;-70
2023/04/17 00:18:38;;;;;;;14.88;8.32;;;;;;;7.94;100.00;99256.75;5008165;28;20491;-70
2023/04/17 00:21:03;;;;;;;13.90;8.40;;;;;;;7.85;100.00;99252.41;4993272;28;20095;-70
2023/04/17 00:23:28;;;;;;;14.15;8.48;;;;;;;7.86;100.00;99240.63;5009235;28;20388;-70
2023/04/17 00:25:54;;;;;;;13.35;8.60;;;;;;;7.87;100.00;99245.00;5014839;28;20029;-71
2023/04/17 00:28:19;;;;;;;15.52;9.27;;;;;;;7.88;100.00;99246.66;5013156;28;20033;-70
2023/04/17 00:30:45;;;;;;;15.65;9.00;;;;;;;7.69;100.00;99235.28;5008453;28;20385;-70
2023/04/17 00:33:10;;;;;;;14.43;8.88;;;;;;;7.64;100.00;99234.97;5011892;28;20108;-70
2023/04/17 00:35:36;;;;;;;16.65;9.52;;;;;;;7.66;100.00;99241.03;5007465;28;20464;-70
2023/04/17 00:38:01;;;;;;;14.63;8.60;;;;;;;7.55;100.00;99227.94;5014034;28;20440;-70
2023/04/17 00:40:26;;;;;;;15.85;9.07;;;;;;;7.53;100.00;99231.81;4996048;28;20022;-70
2023/04/17 00:42:55;;;;;;;17.80;9.82;;;;;;;7.55;100.00;99236.03;5014206;28;20472;-70
2023/04/17 00:45:20;;;;;;;17.08;9.55;;;;;;;7.57;100.00;99250.16;5006378;28;20132;-70
2023/04/17 00:47:47;;;;;;;15.93;9.90;;;;;;;7.47;100.00;99228.81;5010396;28;20424;-70
2023/04/17 00:50:13;;;;;;;16.77;9.85;;;;;;;7.51;100.00;99234.69;5010345;28;20038;-70
2023/04/17 00:52:39;;;;;;;17.63;10.18;;;;;;;7.60;100.00;99239.03;4996975;28;20022;-70
2023/04/17 00:55:05;;;;;;;18.58;10.32;;;;;;;7.57;100.00;99233.16;5013830;28;20455;-70
2023/04/17 00:57:30;;;;;;;16.85;9.75;;;;;;;7.53;100.00;99227.28;5001367;28;20471;-70
2023/04/17 00:59:57;;;;;;;18.42;10.10;;;;;;;7.58;100.00;99232.97;5010125;28;20064;-70
2023/04/17 01:02:22;;;;;;;21.90;9.95;;;;;;;7.55;100.00;99236.03;4994896;28;20542;-70
2023/04/17 01:04:47;;;;;;;15.63;9.18;;;;;;;7.45;100.00;99222.75;5013316;28;20037;-70
2023/04/17 01:07:13;;;;;;;16.65;9.05;;;;;;;7.44;100.00;99218.41;4996668;28;20072;-70
2023/04/17 01:09:38;;;;;;;17.05;9.55;;;;;;;7.52;100.00;99230.13;5007175;28;20087;-70
2023/04/17 01:12:26;;;;;;;15.70;9.57;;;;;;;7.53;100.00;99221.06;4992871;28;20032;-70
2023/04/17 01:14:52;;;;;;;19.98;10.15;;;;;;;7.47;100.00;99218.03;5007568;28;20036;-70
2023/04/17 01:17:19;;;;;;;16.42;9.25;;;;;;;7.51;100.00;99228.47;5004397;28;20037;-70
2023/04/17 01:19:45;;;;;;;17.83;9.90;;;;;;;7.48;100.00;99224.25;5011499;28;20053;-70
2023/04/17 01:22:11;;;;;;;18.00;9.98;;;;;;;7.42;100.00;99214.19;5014102;28;20034;-71
2023/04/17 01:24:36;;;;;;;18.02;10.13;;;;;;;7.64;100.00;99226.91;5013123;28;20104;-70
2023/04/17 01:27:02;;;;;;;18.02;9.95;;;;;;;7.55;100.00;99227.94;5001814;28;20034;-72
2023/04/17 01:29:28;;;;;;;19.23;10.27;;;;;;;7.53;100.00;99223.75;5001341;28;20053;-72
2023/04/17 01:31:53;;;;;;;17.77;10.48;;;;;;;7.52;100.00;99228.31;4993082;28;20148;-72
2023/04/17 01:34:19;;;;;;;19.27;10.38;;;;;;;7.40;100.00;99210.84;5011499;28;20080;-71
2023/04/17 01:36:44;;;;;;;18.95;10.02;;;;;;;7.49;100.00;99225.94;5009633;28;20424;-69
2023/04/17 01:39:09;;;;;;;17.73;10.52;;;;;;;7.48;100.00;99229.66;5007711;28;20104;-73
2023/04/17 01:41:35;;;;;;;19.75;11.02;;;;;;;7.32;100.00;99208.16;5011306;28;20036;-72
2023/04/17 01:44:01;;;;;;;17.75;9.73;;;;;;;7.51;100.00;99239.22;4989863;28;20113;-70
2023/04/17 01:46:26;;;;;;;15.63;9.45;;;;;;;7.51;100.00;99233.84;5011030;28;20029;-71
2023/04/17 01:48:51;;;;;;;15.95;9.25;;;;;;;7.49;100.00;99236.69;4992467;28;20682;-71
2023/04/17 01:51:17;;;;;;;19.55;10.45;;;;;;;7.41;100.00;99234.91;5013152;28;20104;-71
2023/04/17 01:53:42;;;;;;;20.15;10.60;;;;;;;7.43;100.00;99243.63;5015811;28;20461;-72
2023/04/17 01:56:07;;;;;;;18.13;9.82;;;;;;;7.33;100.00;99236.75;5019458;28;20033;-72
2023/04/17 01:58:33;;;;;;;18.48;9.55;;;;;;;7.35;100.00;99224.81;5009821;28;20036;-68
2023/04/17 02:00:58;;;;;;;19.42;10.73;;;;;;;7.45;100.00;99236.22;5010903;28;20029;-72
2023/04/17 02:03:24;;;;;;;18.90;10.27;;;;;;;7.30;100.00;99210.19;5009922;28;20032;-71
2023/04/17 02:05:51;;;;;;;17.48;9.60;;;;;;;7.34;100.00;99219.59;4993980;28;20053;-70
2023/04/17 02:08:16;;;;;;;19.05;9.85;;;;;;;7.38;100.00;99218.22;4992918;28;20049;-71
2023/04/17 02:10:42;;;;;;;19.88;10.52;;;;;;;7.42;100.00;99224.97;5011018;28;20034;-71
2023/04/17 02:13:08;;;;;;;20.50;10.73;;;;;;;7.41;100.00;99216.06;5010316;28;20025;-72
2023/04/17 02:15:33;;;;;;;23.33;10.27;;;;;;;7.43;100.00;99213.19;4993006;28;20060;-72
2023/04/17 02:17:58;;;;;;;18.05;10.57;;;;;;;7.25;100.00;99187.31;5012264;28;20057;-69
2023/04/17 02:20:24;;;;;;;17.38;10.65;;;;;;;7.36;100.00;99215.72;5004161;28;20034;-72
2023/04/17 02:22:50;;;;;;;20.98;11.02;;;;;;;7.36;100.00;99214.88;4991253;28;20106;-72
2023/04/17 02:25:15;;;;;;;22.15;11.82;;;;;;;7.35;100.00;99202.44;5012648;28;20025;-72
2023/04/17 02:27:40;;;;;;;21.90;11.02;;;;;;;7.52;100.00;99230.13;5012154;28;20026;-72
2023/04/17 02:30:06;;;;;;;17.70;9.70;;;;;;;7.49;100.00;99219.72;5009279;28;20108;-72
2023/04/17 02:32:32;;;;;;;18.48;10.65;;;;;;;7.42;100.00;99206.13;5011055;28;20084;-73
2023/04/17 02:34:57;;;;;;;22.73;10.82;;;;;;;7.34;100.00;99215.06;5012005;28;20034;-72
2023/04/17 02:37:23;;;;;;;18.55;10.27;;;;;;;7.31;100.00;99228.00;4989955;28;20072;-73
2023/04/17 02:39:48;;;;;;;20.02;10.35;;;;;;;7.17;100.00;99225.00;5009496;28;20087;-73
2023/04/17 02:42:13;;;;;;;18.40;10.15;;;;;;;7.15;100.00;99220.81;5011746;28;20095;-72
2023/04/17 02:44:39;;;;;;;19.52;10.18;;;;;;;7.05;100.00;99217.47;5006115;28;20499;-72
2023/04/17 02:47:05;;;;;;;20.55;11.13;;;;;;;6.94;100.00;99208.75;4993047;28;20094;-72
2023/04/17 02:49:30;;;;;;;16.35;10.07;;;;;;;6.99;100.00;99216.28;4990766;28;20498;-72
2023/04/17 02:51:55;;;;;;;19.10;11.25;;;;;;;7.01;100.00;99223.19;5009893;28;20025;-72
2023/04/17 02:54:21;;;;;;;22.40;11.43;;;;;;;6.96;100.00;99228.22;5011681;28;20056;-71
2023/04/17 02:56:46;;;;;;;25.23;11.32;;;;;;;6.96;100.00;99220.16;4994137;28;20444;-73
2023/04/17 02:59:12;;;;;;;20.23;11.05;;;;;;;7.00;100.00;99234.97;5008183;28;20056;-72
2023/04/17 03:01:39;;;;;;;22.38;10.90;;;;;;;6.88;100.00;99211.28;5011185;28;20034;-72
2023/04/17 03:04:05;;;;;;;20.92;10.38;;;;;;;7.05;100.00;99228.22;5004131;28;20505;-72
2023/04/17 03:06:30;;;;;;;19.55;10.50;;;;;;;7.00;100.00;99231.44;5006154;28;20022;-70
2023/04/17 03:08:55;;;;;;;20.95;11.45;;;;;;;6.90;100.00;99220.84;5009348;28;20717;-74
2023/04/17 03:11:21;;;;;;;21.20;11.38;;;;;;;6.97;100.00;99229.09;5011412;28;20022;-73
2023/04/17 03:13:46;;;;;;;20.77;11.02;;;;;;;6.80;100.00;99217.50;5010040;28;20026;-72
2023/04/17 03:16:11;;;;;;;19.58;10.98;;;;;;;6.89;100.00;99229.94;4993395;28;20488;-72
2023/04/17 03:18:40;;;;;;;21.15;10.85;;;;;;;6.92;100.00;99239.53;5007907;28;20502;-72
2023/04/17 03:21:06;;;;;;;20.95;10.82;;;;;;;6.67;100.00;99207.25;5011854;28;20038;-71
2023/04/17 03:23:31;;;;;;;20.77;11.70;;;;;;;6.89;100.00;99242.53;5012330;28;20052;-72
2023/04/17 03:25:57;;;;;;;23.33;11.68;;;;;;;6.88;100.00;99244.38;5000046;28;20107;-72
2023/04/17 03:28:23;;;;;;;21.40;11.98;;;;;;;6.81;100.00;99227.22;4993491;28;20025;-74
2023/04/17 03:30:49;;;;;;;19.65;10.60;;;;;;;6.80;100.00;99220.19;4992219;28;20029;-73
2023/04/17 03:33:16;;;;;;;22.35;11.85;;;;;;;6.97;100.00;99237.16;5010207;28;20030;-72
2023/04/17 03:35:41;;;;;;;20.98;10.98;;;;;;;6.95;100.00;99225.72;4993288;28;20033;-73
2023/04/17 03:38:07;;;;;;;25.02;11.88;;;;;;;6.94;100.00;99214.13;5005730;28;20095;-72
2023/04/17 03:40:32;;;;;;;22.02;10.90;;;;;;;7.05;100.00;99237.16;4991181;28;20034;-74
2023/04/17 03:42:58;;;;;;;20.00;11.30;;;;;;;7.11;100.00;99232.94;4991295;28;20033;-72
2023/04/17 03:45:23;;;;;;;26.10;12.27;;;;;;;7.05;100.00;99223.69;5008795;28;20049;-75
2023/04/17 03:47:48;;;;;;;22.63;10.95;;;;;;;7.00;100.00;99212.59;4991064;28;20483;-73
2023/04/17 03:50:14;;;;;;;20.75;12.35;;;;;;;7.09;100.00;99219.63;4992686;28;20181;-75
2023/04/17 03:52:39;;;;;;;19.52;11.07;;;;;;;7.17;100.00;99234.94;5012168;28;20017;-72
2023/04/17 03:55:06;;;;;;;23.55;11.25;;;;;;;7.16;100.00;99226.03;4987275;28;20172;-72
2023/04/17 03:57:31;;;;;;;21.73;11.57;;;;;;;7.25;100.00;99235.75;4992984;28;20033;-72
2023/04/17 03:59:57;;;;;;;21.17;11.25;;;;;;;7.17;100.00;99221.47;5012747;28;20022;-70
2023/04/17 04:02:22;;;;;;;21.48;11.32;;;;;;;7.15;100.00;99224.38;5012865;28;20030;-74
2023/04/17 04:04:49;;;;;;;18.73;11.10;;;;;;;7.27;100.00;99242.84;5019986;28;20033;-76
2023/04/17 04:07:15;;;;;;;20.23;10.45;;;;;;;7.29;100.00;99240.81;5004692;28;20022;-80
2023/04/17 04:09:40;;;;;;;21.40;11.43;;;;;;;7.31;100.00;99238.75;5003878;28;20094;-88
2023/04/17 04:12:07;;;;;;;21.55;11.05;;;;;;;7.32;100.00;99241.31;5005842;28;20466;-86
2023/04/17 04:14:32;;;;;;;18.15;10.68;;;;;;;7.27;100.00;99238.28;5001814;28;20557;-81
2023/04/17 04:16:57;;;;;;;17.30;9.70;;;;;;;7.25;100.00;99235.75;5002723;28;20037;-82
2023/04/17 04:19:23;;;;;;;20.42;11.00;;;;;;;7.27;100.00;99237.44;5003176;28;20514;-83
2023/04/17 04:21:48;;;;;;;18.98;10.38;;;;;;;7.33;100.00;99251.03;5001062;28;20026;-81
2023/04/17 04:24:14;;;;;;;18.48;10.55;;;;;;;7.32;100.00;99235.09;5019359;28;20116;-80
2023/04/17 04:26:42;;;;;;;20.42;9.93;;;;;;;7.31;100.00;99245.00;5005104;28;20028;-84
2023/04/17 04:29:10;;;;;;;17.17;10.20;;;;;;;7.46;100.00;99250.50;5012276;28;20040;-83
2023/04/17 04:31:36;;;;;;;18.40;10.30;;;;;;;7.52;100.00;99247.16;5016456;28;20033;-86
2023/04/17 04:34:02;;;;;;;18.50;10.13;;;;;;;7.45;100.00;99240.75;4991005;28;20021;-77
2023/04/17 04:36:28;;;;;;;20.05;11.23;;;;;;;7.32;100.00;99235.91;4994792;28;20105;-77
2023/04/17 04:38:58;;;;;;;17.40;9.80;;;;;;;7.44;100.00;99253.41;4997557;28;20044;-77
2023/04/17 04:41:25;;;;;;;20.63;9.88;;;;;;;7.40;100.00;99237.75;4978776;28;20109;-78
2023/04/17 04:43:52;;;;;;;17.08;9.80;;;;;;;7.50;100.00;99248.34;4995245;28;20023;-78
2023/04/17 04:46:17;;;;;;;19.50;9.80;;;;;;;7.51;100.00;99252.69;4995928;28;20551;-79
2023/04/17 04:48:42;;;;;;;17.70;10.32;;;;;;;7.49;100.00;99241.25;4998574;28;20065;-77
2023/04/17 04:51:07;;;;;;;16.25;9.25;;;;;;;7.47;100.00;99244.97;4998955;28;20022;-80
2023/04/17 04:53:33;;;;;;;17.88;9.90;;;;;;;7.51;100.00;99245.44;5012122;28;20365;-78
2023/04/17 04:55:58;;;;;;;16.92;9.65;;;;;;;7.57;100.00;99249.31;5002669;28;20025;-77
2023/04/17 04:58:23;;;;;;;21.13;10.75;;;;;;;7.62;100.00;99263.94;4997074;28;20030;-78
2023/04/17 05:00:49;;;;;;;17.10;9.80;;;;;;;7.63;100.00;99244.06;4993253;28;20030;-80
2023/04/17 05:03:14;;;;;;;18.20;10.60;;;;;;;7.62;100.00;99258.56;5012698;28;20053;-77
2023/04/17 05:05:40;;;;;;;17.10;9.30;;;;;;;7.69;100.00;99258.69;4993691;28;20033;-79
2023/04/17 05:08:06;;;;;;;18.55;10.02;;;;;;;7.69;100.00;99256.84;5017057;28;20021;-74
2023/04/17 05:10:31;;;;;;;17.05;9.50;;;;;;;7.78;100.00;99275.66;5011012;28;20391;-74
2023/04/17 05:12:57;;;;;;;15.93;9.52;;;;;;;7.70;100.00;99249.59;5014475;28;20026;-74
2023/04/17 05:15:22;;;;;;;18.25;9.48;;;;;;;7.75;100.00;99257.16;5012967;28;21215;-73
2023/04/17 05:17:48;;;;;;;18.10;9.38;;;;;;;7.79;100.00;99264.72;5012276;28;20053;-79
2023/04/17 05:20:14;;;;;;;15.98;9.43;;;;;;;7.81;100.00;99273.47;5003079;28;20030;-75
2023/04/17 05:22:40;;;;;;;15.98;8.10;;;;;;;7.74;100.00;99261.72;5000477;28;20093;-79
2023/04/17 05:25:05;;;;;;;14.63;8.52;;;;;;;7.75;100.00;99257.16;5001853;28;20466;-79
2023/04/17 05:27:31;;;;;;;16.85;9.70;;;;;;;7.81;100.00;99261.88;4999692;28;20120;-77
2023/04/17 05:29:56;;;;;;;15.82;9.32;;;;;;;7.81;100.00;99264.56;4999907;28;20088;-78
2023/04/17 05:32:21;;;;;;;15.60;9.57;;;;;;;7.90;100.00;99274.28;5015682;28;20017;-79
2023/04/17 05:34:47;;;;;;;15.05;9.30;;;;;;;7.93;100.00;99273.91;5011990;28;20057;-77
2023/04/17 05:37:12;;;;;;;16.00;8.43;;;;;;;7.91;100.00;99259.78;5007508;28;20392;-74
2023/04/17 05:39:38;;;;;;;20.63;10.20;;;;;;;7.83;100.00;99246.34;4994917;28;20034;-75
2023/04/17 05:42:03;;;;;;;15.65;9.13;;;;;;;7.94;100.00;99240.59;5013583;28;20056;-74
2023/04/17 05:44:30;;;;;;;16.38;9.68;;;;;;;8.12;100.00;99272.66;5013264;28;20026;-75
2023/04/17 05:46:56;;;;;;;16.85;9.90;;;;;;;7.95;100.00;99257.59;5010099;28;20395;-72
2023/04/17 05:49:22;;;;;;;15.15;9.48;;;;;;;8.00;100.00;99264.13;4996417;28;20026;-76
2023/04/17 05:51:47;;;;;;;16.65;9.13;;;;;;;8.10;100.00;99270.16;5013854;28;20030;-76
2023/04/17 05:54:12;;;;;;;15.48;9.52;;;;;;;8.10;100.00;99264.75;5013337;28;20117;-73
2023/04/17 05:56:38;;;;;;;16.90;9.90;;;;;;;8.11;100.00;99263.72;5010881;28;20117;-73
2023/04/17 05:59:03;;;;;;;15.52;9.70;;;;;;;8.16;100.00;99276.69;5014048;28;20117;-73
2023/04/17 06:01:29;;;;;;;17.88;9.27;;;;;;;8.24;100.00;99275.81;4994979;28;20065;-73
2023/04/17 06:03:54;;;;;;;16.38;9.45;;;;;;;8.40;100.00;99278.44;5016903;28;20037;-72
2023/04/17 06:06:19;;;;;;;16.08;9.57;;;;;;;8.34;100.00;99246.78;5012211;28;20014;-72
2023/04/17 06:08:45;;;;;;;15.68;9.20;;;;;;;8.51;100.00;99264.56;5002579;28;20484;-71
2023/04/17 06:11:10;;;;;;;14.60;8.40;;;;;;;8.54;100.00;99260.63;5010888;28;20022;-71
2023/04/17 06:13:36;;;;;;;16.65;8.60;;;;;;;8.62;100.00;99262.44;5012990;28;20527;-73
2023/04/17 06:16:01;;;;;;;13.02;8.18;;;;;;;8.67;100.00;99274.41;4988623;28;20030;-72
2023/04/17 06:18:26;;;;;;;14.10;8.25;;;;;;;8.60;100.00;99267.19;4996194;28;20462;-70
2023/04/17 06:20:52;;;;;;;12.88;7.70;;;;;;;8.65;100.00;99279.13;5013340;28;20033;-71
2023/04/17 06:23:17;;;;;;;14.93;8.63;;;;;;;8.60;100.00;99278.81;5016447;28;20025;-71
2023/04/17 06:25:42;;;;;;;13.95;8.50;;;;;;;8.51;100.00;99269.97;4995681;28;20037;-73
2023/04/17 06:28:09;;;;;;;17.98;8.80;;;;;;;8.61;100.00;99293.13;4991493;28;20121;-72
2023/04/17 06:30:34;;;;;;;15.98;8.55;;;;;;;8.45;100.00;99267.94;5002194;28;20034;-71
2023/04/17 06:32:59;;;;;;;14.20;8.07;;;;;;;8.55;100.00;99276.66;5010796;28;20072;-72
2023/04/17 06:35:25;;;;;;;14.15;7.72;;;;;;;8.56;100.00;99283.72;5011928;28;20021;-83
2023/04/17 06:39:43;;;;;;;12.32;7.32;;;;;;;8.64;100.00;99288.22;5105922;27;20755;-54
2023/04/17 06:42:09;;;;;;;19.38;8.77;;;;;;;8.66;100.00;99290.75;5068454;28;20033;-54
2023/04/17 06:44:34;;;;;;;14.18;7.50;;;;;;;8.71;100.00;99291.88;5068465;28;20042;-54
2023/04/17 06:47:03;;;;;;;16.77;7.93;;;;;;;8.66;100.00;99291.59;5067122;28;20046;-54
2023/04/17 06:49:32;;;;;;;13.90;7.63;;;;;;;8.77;100.00;99296.56;5065451;28;20384;-54
2023/04/17 06:51:58;;;;;;;14.60;8.15;;;;;;;8.74;100.00;99296.09;5062450;28;20035;-54
2023/04/17 06:54:24;;;;;;;13.93;8.05;;;;;;;8.79;100.00;99296.38;5065379;28;20021;-54
2023/04/17 06:56:49;;;;;;;14.27;8.07;;;;;;;8.81;100.00;99302.44;5064441;28;20032;-54
2023/04/17 06:59:14;;;;;;;14.60;7.88;;;;;;;8.92;100.00;99299.31;5062904;28;20491;-55
2023/04/17 07:01:41;;;;;;;14.35;8.80;;;;;;;8.96;100.00;99300.66;5061556;28;20044;-54
2023/04/17 07:04:07;;;;;;;13.63;7.75;;;;;;;9.13;100.00;99290.53;5059938;28;20036;-54
2023/04/17 07:06:34;;;;;;;13.77;7.47;;;;;;;9.19;100.00;99288.97;5066092;28;20043;-55
2023/04/17 07:09:02;;;;;;;12.95;7.68;;;;;;;9.43;100.00;99291.47;5070438;28;20028;-54
2023/04/17 07:11:28;;;;;;;10.88;7.45;;;;;;;9.60;100.00;99283.19;5064280;28;20024;-54
2023/04/17 07:13:54;;;;;;;10.23;6.57;;;;;;;9.75;100.00;99289.44;5067659;28;20475;-54
2023/04/17 07:16:22;;;;;;;12.18;6.47;;;;;;;9.69;100.00;99275.81;5067471;28;20129;-54
2023/04/17 07:18:49;;;;;;;15.77;7.50;;;;;;;9.77;100.00;99287.38;5063269;28;20391;-54
2023/04/17 07:21:14;;;;;;;11.05;6.97;;;;;;;9.83;100.00;99283.94;5068259;28;20032;-55
2023/04/17 07:23:40;;;;;;;15.13;7.22;;;;;;;9.82;100.00;99284.97;5068038;28;20036;-55
2023/04/17 07:26:06;;;;;;;14.68;6.95;;;;;;;9.91;100.00;99287.56;5068165;28;20112;-55
2023/04/17 07:28:31;;;;;;;9.45;5.75;;;;;;;9.85;100.00;99284.59;5065973;28;20486;-55
2023/04/17 07:31:08;;;;;;;10.93;6.50;;;;;;;9.87;100.00;99287.09;5067566;28;20025;-54
2023/04/17 07:33:37;;;;;;;12.50;6.43;;;;;;;9.87;100.00;99287.09;5067990;28;20094;-55
2023/04/17 07:36:03;;;;;;;;;;;;;;;9.95;100.00;99291.56;5067107;28;20028;-55
2023/04/17 07:38:32;;;;;;;8.70;5.65;;;;;;;10.04;100.00;99283.19;5061673;28;19924;-55
2023/04/17 07:40:58;;;;;;;9.43;5.70;;;;;;;10.27;100.00;99291.19;5060601;28;20112;-55
2023/04/17 07:43:24;;;;;;;9.82;6.20;;;;;;;10.37;100.00;99296.28;5080125;28;20267;-54
2023/04/17 07:45:49;;;;;;;11.18;6.97;;;;;;;10.44;100.00;99296.38;5063321;28;20493;-55
2023/04/17 07:48:18;;;;;;;13.73;6.63;;;;;;;10.56;100.00;99291.28;5064927;28;20056;-55
2023/04/17 07:50:44;;;;;;;11.95;7.25;;;;;;;10.91;100.00;99297.72;5056067;28;20495;-55
2023/04/17 07:53:10;;;;;;;11.20;6.78;;;;;;;11.10;100.00;99294.34;5050937;28;20051;-54
2023/04/17 07:55:35;;;;;;;10.48;6.63;;;;;;;11.24;100.00;99295.31;5038409;28;20441;-54
2023/04/17 07:58:02;;;;;;;12.63;6.50;;;;;;;11.62;100.00;99289.53;5052545;28;20021;-54
2023/04/17 08:00:31;;;;;;;10.35;6.10;;;;;;;11.80;100.00;99280.91;5050137;28;20151;-54
2023/04/17 08:02:57;;;;;;;12.32;6.72;;;;;;;11.69;100.00;99295.84;5052052;28;20120;-54
2023/04/17 08:05:23;;;;;;;11.70;5.95;;;;;;;11.44;100.00;99279.19;5054105;28;20163;-54
2023/04/17 08:07:48;;;;;;;13.93;6.50;;;;;;;11.36;100.00;99282.06;5044782;28;20056;-54
2023/04/17 08:10:14;;;;;;;11.43;6.65;;;;;;;11.06;100.00;99303.91;5051850;28;20039;-54
2023/04/17 08:12:40;;;;;;;10.77;7.10;;;;;;;10.97;100.00;99283.38;5048115;28;20052;-54
2023/04/17 08:15:06;;;;;;;13.45;6.65;;;;;;;11.11;100.00;99300.63;5049373;28;20033;-50
2023/04/17 08:17:32;;;;;;;11.90;6.32;;;;;;;11.05;100.00;99295.97;5050068;28;20480;-57
2023/04/17 08:19:57;;;;;;;11.55;6.63;;;;;;;10.94;100.00;99300.84;5053347;28;20064;-57
2023/04/17 08:22:24;;;;;;;10.80;6.68;;;;;;;10.82;100.00;99306.97;5050443;28;20029;-57
2023/04/17 08:24:53;;;;;;;11.75;6.57;;;;;;;10.63;100.00;99308.44;5050173;28;20025;-57
2023/04/17 08:27:19;;;;;;;10.65;6.30;;;;;;;10.46;100.00;99314.09;5050835;28;20032;-58
2023/04/17 08:29:45;;;;;;;14.73;6.97;;;;;;;10.39;100.00;99313.16;5047397;28;20500;-58
2023/04/17 08:32:10;;;;;;;10.60;6.57;;;;;;;10.33;100.00;99318.50;5048741;28;20120;-58
2023/04/17 08:34:36;;;;;;;14.07;6.95;;;;;;;10.32;100.00;99312.25;5052386;28;20396;-58
2023/04/17 08:37:02;;;;;;;11.70;6.82;;;;;;;10.45;100.00;99306.16;5050344;28;20028;-58
2023/04/17 08:39:27;;;;;;;11.35;5.85;;;;;;;10.72;100.00;99315.44;5048872;28;20044;-58
2023/04/17 08:42:06;;;;;;;10.20;5.50;;;;;;;10.74;100.00;99316.91;5052214;28;20063;-58
2023/04/17 08:44:32;;;;;;;;;;;;;;;10.99;100.00;99308.41;5049768;28;20032;-58
2023/04/17 08:46:58;;;;;;;10.80;5.47;;;;;;;11.09;100.00;99310.81;5049517;28;19913;-58
2023/04/17 08:49:33;;;;;;;12.18;6.13;;;;;;;11.11;100.00;99315.00;5049207;28;20365;-58
2023/04/17 08:52:03;;;;;;;13.93;6.65;;;;;;;11.19;100.00;99317.56;5048340;28;20028;-58
2023/04/17 08:54:30;;;;;;;10.32;6.20;;;;;;;11.32;100.00;99316.84;5052026;28;20075;-58
2023/04/17 08:56:56;;;;;;;15.15;6.80;;;;;;;11.34;100.00;99306.66;5048859;28;20035;-58
2023/04/17 08:59:22;;;;;;;9.13;5.47;;;;;;;11.44;100.00;99311.72;5052560;28;20021;-58
2023/04/17 09:02:07;;;;;;;10.35;5.43;;;;;;;11.29;100.00;99319.94;5051586;28;20090;-58
2023/04/17 09:04:40;;;;;;;8.65;5.30;;;;;;;11.25;100.00;99317.81;5045676;28;20033;-58
2023/04/17 09:07:08;;;;;;;9.05;5.10;;;;;;;11.45;100.00;99324.25;5064612;28;20120;-58
2023/04/17 09:09:52;;;;;;;10.67;5.23;;;;;;;11.70;100.00;99310.22;5042970;28;20064;-58
2023/04/17 09:12:19;;;;;;;7.90;4.78;;;;;;;11.79;100.00;99298.22;5046986;28;20283;-58
2023/04/17 09:14:44;;;;;;;7.97;4.63;;;;;;;12.02;100.00;99304.19;5051255;28;20028;-58
2023/04/17 09:17:10;;;;;;;7.82;4.47;;;;;;;12.13;100.00;99304.66;5051655;28;20031;-58
2023/04/17 09:19:36;;;;;;;6.18;4.10;;;;;;;12.32;100.00;99314.78;5046713;28;20439;-58
2023/04/17 09:22:19;;;;;;;6.68;3.35;;;;;;;12.65;100.00;99303.19;5051393;28;20159;-58
2023/04/17 09:24:45;;;;;;;7.28;3.45;;;;;;;13.02;100.00;99304.56;5049956;28;20021;-60
2023/04/17 09:27:26;;;;;;;6.00;3.90;;;;;;;13.54;100.00;99296.63;5047108;28;20025;-50
2023/04/17 09:29:58;;;;;;;7.38;3.65;;;;;;;13.82;100.00;99301.84;5049209;28;20021;-59
2023/04/17 09:32:27;;;;;;;9.82;3.50;;;;;;;14.17;100.00;99305.09;5044760;28;20112;-59
2023/04/17 09:34:55;;;;;;;7.07;3.80;;;;;;;14.60;100.00;99292.81;5049023;28;20025;-59
2023/04/17 09:37:21;;;;;;;4.75;3.10;;;;;;;15.00;100.00;99296.13;5043133;28;20511;-59
2023/04/17 09:40:00;;;;;;;6.13;3.25;;;;;;;15.38;100.00;99297.09;5049205;28;20033;-60
2023/04/17 09:42:27;;;;;;;6.72;2.95;;;;;;;15.21;100.00;99291.38;5049784;28;20029;-59
2023/04/17 09:44:53;;;;;;;4.68;3.08;;;;;;;15.04;100.00;99291.91;5051117;28;20476;-60
2023/04/17 09:47:21;;;;;;;6.40;3.33;;;;;;;14.81;100.00;99308.00;5047732;28;20049;-60
2023/04/17 09:49:51;;;;;;;88.40;9.63;;;;;;;14.42;100.00;99301.66;5048177;28;20036;-60
2023/04/17 09:52:18;;;;;;;52.53;7.53;;;;;;;13.94;100.00;99302.88;5048878;28;20048;-60
2023/04/17 09:54:45;;;;;;;83.05;8.15;;;;;;;13.99;100.00;99294.91;5049811;28;20020;-60
2023/04/17 09:57:11;;;;;;;44.33;6.28;;;;;;;13.56;100.00;99298.09;5052413;28;20104;-59
2023/04/17 09:59:43;;;;;;;35.67;6.03;;;;;;;14.11;100.00;99296.97;5066176;28;20033;-59
2023/04/17 10:02:11;;;;;;;5.53;3.58;;;;;;;14.74;100.00;99296.28;5051901;28;20480;-59
2023/04/17 10:04:40;;;;;;;5.40;3.22;;;;;;;15.39;100.00;99293.31;5046615;28;20036;-59
2023/04/17 10:07:06;;;;;;;5.85;2.95;;;;;;;15.52;100.00;99291.31;5043120;28;20032;-59
2023/04/17 10:09:31;;;;;;;7.03;4.20;;;;;;;15.64;100.00;99285.09;5048291;28;20483;-59
2023/04/17 10:12:00;;;;;;;6.10;3.55;;;;;;;14.68;100.00;99292.56;5049982;28;20029;-60
2023/04/17 10:14:30;;;;;;;10.05;3.50;;;;;;;14.04;100.00;99286.06;5049983;28;20027;-60
2023/04/17 10:16:56;;;;;;;7.95;3.25;;;;;;;13.94;100.00;99293.88;5050236;28;20075;-60
2023/04/17 10:19:35;;;;;;;5.75;3.42;;;;;;;13.53;100.00;99284.09;5044923;28;20044;-60
2023/04/17 10:22:13;;;;;;;4.20;2.67;;;;;;;13.10;100.00;99295.38;5047081;28;20112;-60
2023/04/17 10:24:38;;;;;;;4.95;3.50;;;;;;;12.88;100.00;99283.84;5037432;28;20075;-59
2023/04/17 10:27:26;;;;;;;4.88;3.30;;;;;;;12.67;100.00;99298.41;5049280;28;20488;-59
2023/04/17 10:30:02;;;;;;;5.43;3.33;;;;;;;12.47;100.00;99292.91;5048610;28;20032;-60
2023/04/17 10:32:28;;;;;;;4.90;2.83;;;;;;;12.56;100.00;99290.88;5049094;28;20051;-60
2023/04/17 10:34:58;;;;;;;4.95;3.25;;;;;;;12.31;100.00;99291.41;5044791;28;20455;-59
2023/04/17 10:37:49;;;;;;;5.90;3.67;;;;;;;12.26;100.00;99283.03;5041527;28;20072;-60
2023/04/17 10:40:21;;;;;;;6.15;3.50;;;;;;;12.50;100.00;99285.22;5048181;28;20111;-59
2023/04/17 10:43:10;;;;;;;4.40;3.20;;;;;;;12.55;100.00;99291.91;5051223;28;20078;-59
2023/04/17 10:46:09;;;;;;;8.15;3.58;;;;;;;12.55;100.00;99283.75;5049373;28;20028;-60
2023/04/17 10:48:40;;;;;;;4.32;2.65;;;;;;;12.65;100.00;99289.63;5032712;28;20897;-60
2023/04/17 10:51:27;;;;;;;5.03;3.25;;;;;;;12.72;100.00;99287.78;5051051;28;20029;-60
2023/04/17 10:53:57;;;;;;;7.45;2.97;;;;;;;12.92;100.00;99280.50;5047084;28;20033;-60
2023/04/17 10:56:24;;;;;;;5.13;3.53;;;;;;;12.68;100.00;99283.78;5078734;28;20029;-59
2023/04/17 10:59:02;;;;;;;5.78;3.55;;;;;;;12.54;100.00;99285.63;5049324;28;20060;-60
2023/04/17 11:01:39;;;;;;;5.28;3.60;;;;;;;12.44;100.00;99280.63;5049276;28;20021;-60
2023/04/17 11:04:05;;;;;;;5.35;3.45;;;;;;;12.24;100.00;99280.53;5044707;28;20025;-60
2023/04/17 11:06:35;;;;;;;7.63;3.85;;;;;;;12.03;100.00;99281.47;5049032;28;20025;-60
2023/04/17 11:09:01;;;;;;;8.25;3.58;;;;;;;12.31;100.00;99279.72;5046134;28;20441;-60
2023/04/17 11:11:27;;;;;;;6.63;3.80;;;;;;;12.73;100.00;99278.56;5050105;28;20063;-62
2023/04/17 11:13:52;;;;;;;5.47;3.50;;;;;;;13.27;100.00;99276.81;5050052;28;20021;-60
2023/04/17 11:16:21;;;;;;;5.32;3.50;;;;;;;13.64;100.00;99264.44;5042742;28;20029;-60
2023/04/17 11:18:47;;;;;;;7.13;3.88;;;;;;;14.21;100.00;99265.50;5046862;28;20029;-60
2023/04/17 11:21:14;;;;;;;5.55;3.20;;;;;;;14.73;100.00;99261.94;5050247;28;20435;-60
2023/04/17 11:26:14;;;;;;;5.35;2.95;;;;;;;15.25;100.00;99228.00;4998793;23;20055;-73